createdAt,value
2018-11-02T00:00:53.868Z,5.40
2018-11-02T00:03:22.802Z,5.50
2018-11-02T00:05:51.516Z,5.50
2018-11-02T00:08:20.873Z,5.40
2018-11-02T00:10:49.556Z,5.40
2018-11-02T00:13:18.819Z,5.40
2018-11-02T00:15:48.187Z,5.30
2018-11-02T00:18:16.992Z,5.30
2018-11-02T00:20:45.622Z,5.30
2018-11-02T00:23:14.332Z,5.30
2018-11-02T00:25:43.001Z,5.20
2018-11-02T00:28:11.745Z,5.20
2018-11-02T00:30:43.937Z,5.20
2018-11-02T00:33:13.279Z,5.20
2018-11-02T00:35:43.181Z,5.20
2018-11-02T00:38:12.383Z,5.20
2018-11-02T00:40:41.701Z,5.30
2018-11-02T00:43:10.558Z,5.40
2018-11-02T00:45:39.765Z,5.40
2018-11-02T00:48:08.861Z,5.30
2018-11-02T00:50:38.334Z,5.30
2018-11-02T00:53:06.925Z,5.30
2018-11-02T00:55:35.550Z,5.30
2018-11-02T00:58:04.266Z,5.30
2018-11-02T01:00:33.821Z,5.30
2018-11-02T01:03:02.385Z,5.30
2018-11-02T01:05:31.606Z,5.20
2018-11-02T01:08:00.346Z,5.20
2018-11-02T01:10:29.739Z,5.30
2018-11-02T01:12:58.437Z,5.20
2018-11-02T01:15:27.466Z,5.20
2018-11-02T01:17:56.142Z,5.10
2018-11-02T01:20:25.358Z,5.10
2018-11-02T01:22:53.919Z,5.10
2018-11-02T01:25:22.516Z,5.10
2018-11-02T01:27:51.850Z,5.00
2018-11-02T01:30:20.436Z,5.00
2018-11-02T01:32:48.986Z,5.00
2018-11-02T01:35:17.684Z,5.00
2018-11-02T01:37:46.249Z,4.90
2018-11-02T01:40:14.860Z,4.90
2018-11-02T01:42:43.501Z,4.90
2018-11-02T01:45:12.647Z,4.90
2018-11-02T01:47:41.285Z,4.90
2018-11-02T01:50:09.932Z,4.90
2018-11-02T01:52:38.565Z,4.80
2018-11-02T01:55:07.872Z,4.80
2018-11-02T01:57:36.444Z,4.80
2018-11-02T02:00:07.478Z,4.80
2018-11-02T02:02:36.186Z,4.70
2018-11-02T02:05:05.828Z,4.80
2018-11-02T02:07:34.492Z,4.70
2018-11-02T02:10:03.248Z,4.80
2018-11-02T02:12:31.906Z,4.80
2018-11-02T02:15:00.546Z,4.70
2018-11-02T02:17:29.310Z,4.70
2018-11-02T02:19:58.021Z,4.70
2018-11-02T02:22:26.782Z,4.70
2018-11-02T02:24:55.329Z,4.70
2018-11-02T02:27:24.045Z,4.70
2018-11-02T02:29:52.740Z,4.60
2018-11-02T02:32:21.345Z,4.60
2018-11-02T02:34:50.009Z,4.60
2018-11-02T02:37:18.585Z,4.70
2018-11-02T02:39:47.208Z,4.80
2018-11-02T02:42:15.877Z,4.80
2018-11-02T02:44:44.566Z,4.70
2018-11-02T02:47:13.406Z,4.70
2018-11-02T02:49:42.090Z,4.70
2018-11-02T02:52:11.265Z,4.60
2018-11-02T02:54:40.125Z,4.60
2018-11-02T02:57:09.310Z,4.70
2018-11-02T02:59:39.244Z,4.70
2018-11-02T03:02:07.908Z,4.70
2018-11-02T03:04:37.022Z,4.70
2018-11-02T03:07:05.635Z,4.60
2018-11-02T03:09:34.286Z,4.60
2018-11-02T03:12:02.899Z,4.60
2018-11-02T03:14:31.487Z,4.60
2018-11-02T03:17:00.075Z,4.60
2018-11-02T03:19:28.708Z,4.60
2018-11-02T03:21:57.254Z,4.50
2018-11-02T03:24:26.470Z,4.50
2018-11-02T03:26:55.045Z,4.50
2018-11-02T03:29:23.597Z,4.50
2018-11-02T03:31:52.237Z,4.50
2018-11-02T03:34:20.810Z,4.40
2018-11-02T03:36:49.412Z,4.40
2018-11-02T03:39:17.947Z,4.30
2018-11-02T03:41:46.502Z,4.30
2018-11-02T03:44:15.080Z,4.40
2018-11-02T03:46:43.726Z,4.30
2018-11-02T03:49:12.329Z,4.30
2018-11-02T03:51:40.903Z,4.30
2018-11-02T03:54:10.266Z,4.30
2018-11-02T03:56:38.839Z,4.30
2018-11-02T03:59:07.680Z,4.30
2018-11-02T04:01:36.535Z,4.30
2018-11-02T04:04:05.874Z,4.30
2018-11-02T04:06:34.699Z,4.30
2018-11-02T04:09:04.337Z,4.30
2018-11-02T04:11:33.195Z,4.30
2018-11-02T04:14:01.953Z,4.30
2018-11-02T04:16:30.869Z,4.30
2018-11-02T04:18:59.864Z,4.30
2018-11-02T04:21:28.781Z,4.30
2018-11-02T04:23:57.800Z,4.30
2018-11-02T04:26:26.706Z,4.30
2018-11-02T04:28:55.754Z,4.30
2018-11-02T04:31:24.691Z,4.20
2018-11-02T04:33:53.445Z,4.30
2018-11-02T04:36:22.365Z,4.30
2018-11-02T04:38:51.187Z,4.30
2018-11-02T04:41:20.607Z,4.30
2018-11-02T04:43:49.196Z,4.30
2018-11-02T04:46:18.092Z,4.30
2018-11-02T04:48:47.179Z,4.30
2018-11-02T04:51:16.215Z,4.30
2018-11-02T04:53:45.102Z,4.30
2018-11-02T04:56:13.857Z,4.30
2018-11-02T04:58:45.547Z,4.30
2018-11-02T05:01:14.223Z,4.30
2018-11-02T05:03:43.074Z,4.30
2018-11-02T05:06:11.674Z,4.30
2018-11-02T05:08:43.336Z,4.30
2018-11-02T05:11:12.036Z,4.40
2018-11-02T05:13:41.245Z,4.30
2018-11-02T05:16:10.239Z,4.30
2018-11-02T05:18:39.356Z,4.30
2018-11-02T05:21:08.986Z,4.40
2018-11-02T05:23:38.345Z,4.40
2018-11-02T05:26:07.926Z,4.40
2018-11-02T05:28:36.786Z,4.30
2018-11-02T05:31:06.264Z,4.20
2018-11-02T05:33:35.259Z,4.20
2018-11-02T05:36:04.204Z,4.30
2018-11-02T05:38:32.872Z,4.40
2018-11-02T05:41:01.490Z,4.40
2018-11-02T05:43:30.493Z,4.40
2018-11-02T05:45:59.663Z,4.40
2018-11-02T05:48:28.684Z,4.40
2018-11-02T05:50:57.876Z,4.40
2018-11-02T05:53:27.279Z,4.40
2018-11-02T05:55:56.585Z,4.40
2018-11-02T05:58:26.158Z,4.40
2018-11-02T06:00:55.649Z,4.40
2018-11-02T06:03:25.204Z,4.40
2018-11-02T06:05:54.256Z,4.50
2018-11-02T06:08:23.803Z,4.50
2018-11-02T06:10:53.504Z,4.50
2018-11-02T06:13:22.951Z,4.40
2018-11-02T06:15:52.169Z,4.40
2018-11-02T06:18:21.387Z,4.40
2018-11-02T06:20:50.943Z,4.40
2018-11-02T06:23:20.616Z,4.50
2018-11-02T06:25:51.088Z,4.50
2018-11-02T06:28:19.998Z,4.50
2018-11-02T06:30:49.130Z,4.50
2018-11-02T06:33:18.445Z,4.50
2018-11-02T06:36:03.587Z,4.50
2018-11-02T06:38:32.712Z,4.40
2018-11-02T06:41:02.186Z,4.40
2018-11-02T06:43:31.057Z,4.50
2018-11-02T06:46:00.203Z,4.50
2018-11-02T06:48:29.365Z,4.50
2018-11-02T06:50:58.558Z,4.50
2018-11-02T06:53:28.916Z,4.50
2018-11-02T06:55:58.982Z,4.50
2018-11-02T06:58:29.154Z,4.60
2018-11-02T07:00:58.463Z,4.60
2018-11-02T07:03:27.294Z,4.60
2018-11-02T07:05:56.721Z,4.60
2018-11-02T07:08:26.621Z,4.70
2018-11-02T07:10:56.207Z,4.70
2018-11-02T07:13:25.657Z,4.70
2018-11-02T07:15:54.640Z,4.80
2018-11-02T07:18:23.872Z,5.00
2018-11-02T07:20:53.513Z,5.00
2018-11-02T07:23:22.597Z,5.00
2018-11-02T07:25:51.875Z,5.00
2018-11-02T07:28:21.966Z,5.10
2018-11-02T07:30:51.229Z,5.10
2018-11-02T07:33:21.424Z,5.20
2018-11-02T07:35:50.957Z,5.30
2018-11-02T07:38:20.112Z,5.30
2018-11-02T07:40:50.417Z,5.40
2018-11-02T07:43:21.558Z,5.60
2018-11-02T07:45:50.783Z,5.60
2018-11-02T07:48:19.777Z,5.70
2018-11-02T07:50:49.589Z,5.80
2018-11-02T07:53:18.757Z,6.00
2018-11-02T07:55:48.173Z,6.10
2018-11-02T07:58:20.831Z,6.20
2018-11-02T08:00:51.044Z,6.30
2018-11-02T08:03:20.716Z,6.50
2018-11-02T08:05:49.838Z,6.60
2018-11-02T08:08:18.960Z,6.70
2018-11-02T08:10:47.984Z,6.80
2018-11-02T08:15:54.205Z,6.90
2018-11-02T08:18:22.849Z,6.90
2018-11-02T08:20:51.842Z,7.00
2018-11-02T08:23:20.361Z,7.00
2018-11-02T08:25:49.187Z,7.30
2018-11-02T08:28:18.051Z,7.50
2018-11-02T08:30:46.741Z,7.70
2018-11-02T08:33:15.532Z,7.90
2018-11-02T08:35:44.264Z,8.30
2018-11-02T08:38:13.247Z,8.70
2018-11-02T08:40:42.035Z,8.70
2018-11-02T08:43:10.824Z,9.30
2018-11-02T08:45:39.711Z,9.90
2018-11-02T08:48:08.526Z,10.50
2018-11-02T08:50:37.150Z,10.70
2018-11-02T08:53:06.144Z,10.70
2018-11-02T08:55:34.934Z,10.80
2018-11-02T08:58:05.040Z,10.90
2018-11-02T09:00:33.736Z,10.80
2018-11-02T09:03:02.626Z,10.60
2018-11-02T09:05:31.343Z,10.50
2018-11-02T09:08:00.202Z,10.70
2018-11-02T09:10:29.136Z,10.30
2018-11-02T09:12:57.947Z,10.10
2018-11-02T09:15:26.823Z,10.30
2018-11-02T09:17:55.781Z,10.10
2018-11-02T09:20:24.819Z,10.30
2018-11-02T09:22:53.580Z,10.40
2018-11-02T09:25:22.742Z,10.40
2018-11-02T09:27:51.639Z,10.30
2018-11-02T09:30:20.647Z,10.40
2018-11-02T09:32:49.658Z,10.40
2018-11-02T09:35:18.459Z,10.30
2018-11-02T09:37:47.559Z,10.30
2018-11-02T09:40:16.574Z,10.30
2018-11-02T09:42:45.748Z,10.40
2018-11-02T09:45:15.305Z,10.40
2018-11-02T09:47:44.581Z,10.40
2018-11-02T09:50:13.824Z,10.40
2018-11-02T09:52:42.409Z,10.40
2018-11-02T09:55:13.221Z,10.30
2018-11-02T09:57:42.641Z,10.30
2018-11-02T10:00:12.257Z,10.30
2018-11-02T10:02:41.194Z,10.30
2018-11-02T10:05:11.184Z,10.20
2018-11-02T10:07:40.707Z,10.30
2018-11-02T10:10:11.624Z,10.20
2018-11-02T10:12:40.727Z,10.30
2018-11-02T10:15:13.252Z,10.20
2018-11-02T10:17:47.931Z,10.20
2018-11-02T10:20:17.436Z,10.20
2018-11-02T10:22:46.633Z,10.20
2018-11-02T10:25:16.162Z,10.30
2018-11-02T10:27:46.258Z,10.40
2018-11-02T10:30:15.810Z,10.50
2018-11-02T10:32:47.867Z,10.50
2018-11-02T10:35:17.953Z,10.50
2018-11-02T10:37:48.342Z,10.50
2018-11-02T10:40:23.696Z,10.40
2018-11-02T10:43:03.217Z,10.40
2018-11-02T10:45:39.418Z,10.40
2018-11-02T10:48:13.083Z,10.30
2018-11-02T10:50:45.006Z,10.20
2018-11-02T10:53:20.837Z,10.20
2018-11-02T10:55:55.134Z,10.10
2018-11-02T10:58:25.297Z,10.10
2018-11-02T11:01:01.681Z,10.10
2018-11-02T11:12:10.733Z,10.10
2018-11-02T11:14:40.857Z,10.00
2018-11-02T11:17:11.590Z,9.90
2018-11-02T11:19:41.390Z,9.90
2018-11-02T11:22:10.769Z,10.00
2018-11-02T11:24:43.369Z,9.90
2018-11-02T11:27:16.375Z,9.90
2018-11-02T11:29:49.197Z,9.90
2018-11-02T11:32:21.928Z,9.90
2018-11-02T11:34:55.913Z,9.90
2018-11-02T11:37:28.565Z,9.80
2018-11-02T11:40:02.229Z,9.80
2018-11-02T11:42:36.225Z,9.80
2018-11-02T11:45:06.192Z,9.80
2018-11-02T11:47:38.304Z,9.80
2018-11-02T11:50:17.142Z,9.80
2018-11-02T11:52:49.841Z,9.80
2018-11-02T11:55:22.070Z,9.90
2018-11-02T11:57:53.924Z,9.90
2018-11-02T12:00:25.237Z,9.60
2018-11-02T12:02:57.448Z,9.70
2018-11-02T12:05:29.134Z,9.70
2018-11-02T12:07:58.864Z,9.60
2018-11-02T12:10:29.364Z,9.60
2018-11-02T12:12:58.372Z,9.70
2018-11-02T12:15:27.831Z,9.60
2018-11-02T12:17:57.006Z,9.50
2018-11-02T12:20:28.495Z,9.60
2018-11-02T12:22:59.181Z,9.70
2018-11-02T12:25:28.306Z,9.70
2018-11-02T12:27:57.461Z,9.70
2018-11-02T12:30:26.693Z,9.60
2018-11-02T12:33:10.720Z,9.60
2018-11-02T12:35:39.702Z,9.80
2018-11-02T12:38:10.162Z,9.80
2018-11-02T12:40:45.185Z,9.90
2018-11-02T12:43:14.430Z,9.90
2018-11-02T12:45:43.560Z,10.10
2018-11-02T12:48:12.418Z,10.00
2018-11-02T12:50:41.254Z,10.10
2018-11-02T12:53:11.008Z,10.00
2018-11-02T12:55:40.012Z,9.90
2018-11-02T12:58:08.827Z,10.10
2018-11-02T13:00:39.902Z,10.20
2018-11-02T13:05:42.891Z,9.90
2018-11-02T13:08:11.825Z,10.00
2018-11-02T13:10:40.985Z,10.20
2018-11-02T13:13:10.130Z,10.30
2018-11-02T13:15:39.313Z,10.30
2018-11-02T13:18:13.413Z,10.30
2018-11-02T13:23:21.753Z,10.50
2018-11-02T13:25:58.443Z,10.50
2018-11-02T13:28:29.249Z,10.60
2018-11-02T13:31:07.277Z,10.60
2018-11-02T13:33:39.593Z,10.70
2018-11-02T13:36:09.639Z,10.70
2018-11-02T13:38:39.125Z,10.70
2018-11-02T13:41:08.541Z,10.70
2018-11-02T13:43:38.318Z,10.60
2018-11-02T13:46:07.523Z,10.60
2018-11-02T13:48:37.065Z,10.70
2018-11-02T13:51:07.101Z,10.70
2018-11-02T13:53:36.560Z,10.70
2018-11-02T13:56:05.977Z,10.70
2018-11-02T13:58:36.755Z,10.70
2018-11-02T14:01:06.017Z,10.60
2018-11-02T14:03:35.258Z,10.60
2018-11-02T14:06:04.336Z,10.60
2018-11-02T14:08:33.471Z,10.60
2018-11-02T14:11:02.673Z,10.60
2018-11-02T14:13:31.564Z,10.50
2018-11-02T14:16:01.203Z,10.60
2018-11-02T14:18:30.495Z,10.50
2018-11-02T14:20:59.156Z,10.50
2018-11-02T14:23:39.658Z,10.40
2018-11-02T14:26:12.194Z,10.30
2018-11-02T14:28:41.531Z,10.30
2018-11-02T14:31:10.786Z,10.20
2018-11-02T14:33:40.975Z,10.20
2018-11-02T14:36:10.425Z,10.20
2018-11-02T14:38:39.443Z,10.30
2018-11-02T14:41:08.683Z,10.30
2018-11-02T14:43:38.342Z,10.30
2018-11-02T14:46:09.053Z,10.20
2018-11-02T14:48:38.164Z,10.20
2018-11-02T14:51:07.748Z,10.20
2018-11-02T14:53:38.242Z,10.00
2018-11-02T14:56:07.617Z,10.00
2018-11-02T14:58:36.845Z,10.00
2018-11-02T15:01:06.055Z,10.00
2018-11-02T15:03:35.223Z,9.90
2018-11-02T15:06:09.015Z,9.90
2018-11-02T15:08:38.631Z,9.90
2018-11-02T15:11:07.967Z,10.00
2018-11-02T15:13:36.944Z,10.00
2018-11-02T15:16:13.318Z,10.00
2018-11-02T15:18:42.925Z,10.00
2018-11-02T15:21:11.915Z,10.00
2018-11-02T15:23:41.157Z,9.70
2018-11-02T15:26:10.524Z,9.80
2018-11-02T15:28:40.326Z,9.80
2018-11-02T15:31:09.407Z,9.80
2018-11-02T15:33:39.449Z,9.80
2018-11-02T15:36:08.608Z,9.80
2018-11-02T15:38:38.639Z,9.80
2018-11-02T15:41:08.061Z,9.70
2018-11-02T15:43:37.134Z,9.60
2018-11-02T15:46:06.621Z,9.60
2018-11-02T15:48:35.904Z,9.70
2018-11-02T15:51:05.549Z,9.70
2018-11-02T15:53:34.809Z,9.70
2018-11-02T15:56:03.981Z,9.60
2018-11-02T15:58:33.056Z,9.60
2018-11-02T16:01:01.970Z,9.60
2018-11-02T16:03:30.728Z,9.60
2018-11-02T16:05:59.579Z,9.60
2018-11-02T16:08:28.675Z,9.60
2018-11-02T16:10:57.648Z,9.50
2018-11-02T16:13:26.409Z,9.50
2018-11-02T16:15:55.009Z,9.50
2018-11-02T16:18:23.627Z,9.50
2018-11-02T16:20:52.284Z,9.30
2018-11-02T16:23:20.844Z,9.30
2018-11-02T16:25:49.568Z,9.20
2018-11-02T16:28:18.208Z,9.20
2018-11-02T16:30:47.054Z,9.20
2018-11-02T16:33:15.783Z,9.20
2018-11-02T16:35:44.460Z,9.10
2018-11-02T16:38:13.958Z,9.10
2018-11-02T16:40:42.625Z,9.10
2018-11-02T16:43:11.472Z,9.10
2018-11-02T16:45:40.165Z,9.10
2018-11-02T16:48:08.959Z,9.20
2018-11-02T16:50:37.473Z,9.20
2018-11-02T16:53:06.626Z,9.20
2018-11-02T16:55:35.418Z,9.20
2018-11-02T16:58:04.320Z,9.10
2018-11-02T17:00:33.814Z,9.10
2018-11-02T17:03:02.504Z,9.10
2018-11-02T17:05:31.103Z,9.10
2018-11-02T17:08:00.005Z,9.10
2018-11-02T17:10:28.601Z,9.10
2018-11-02T17:12:57.306Z,9.10
2018-11-02T17:15:25.964Z,9.20
2018-11-02T17:17:54.665Z,9.20
2018-11-02T17:20:39.309Z,9.10
2018-11-02T17:23:07.951Z,9.10
2018-11-02T17:25:36.558Z,9.10
2018-11-02T17:28:05.687Z,9.10
2018-11-02T17:30:34.771Z,9.00
2018-11-02T17:33:03.686Z,9.00
2018-11-02T17:35:32.303Z,9.00
2018-11-02T17:38:00.903Z,9.00
2018-11-02T17:40:29.534Z,9.00
2018-11-02T17:42:58.178Z,9.00
2018-11-02T17:45:27.802Z,9.00
2018-11-02T17:47:57.354Z,9.00
2018-11-02T17:50:26.190Z,8.90
2018-11-02T17:52:54.817Z,8.90
2018-11-02T17:55:23.591Z,8.90
2018-11-02T17:57:52.472Z,8.90
2018-11-02T18:00:22.417Z,8.80
2018-11-02T18:02:52.788Z,8.80
2018-11-02T18:05:21.402Z,8.80
2018-11-02T18:07:50.101Z,8.80
2018-11-02T18:10:18.870Z,8.80
2018-11-02T18:12:47.466Z,8.80
2018-11-02T18:15:17.045Z,8.80
2018-11-02T18:17:46.221Z,8.80
2018-11-02T18:20:15.896Z,8.80
2018-11-02T18:22:44.827Z,8.70
2018-11-02T18:25:13.759Z,8.80
2018-11-02T18:27:42.993Z,8.80
2018-11-02T18:30:12.339Z,8.70
2018-11-02T18:32:41.508Z,8.70
2018-11-02T18:35:10.675Z,8.70
2018-11-02T18:37:39.463Z,8.80
2018-11-02T18:40:11.736Z,8.70
2018-11-02T18:42:41.550Z,8.70
2018-11-02T18:45:12.122Z,8.70
2018-11-02T18:47:48.827Z,8.70
2018-11-02T18:50:18.666Z,8.70
2018-11-02T18:52:48.416Z,8.70
2018-11-02T18:55:18.114Z,8.60
2018-11-02T18:57:46.788Z,8.60
2018-11-02T19:00:15.662Z,8.60
2018-11-02T19:02:44.355Z,8.50
2018-11-02T19:05:15.450Z,8.50
2018-11-02T19:07:44.140Z,8.50
2018-11-02T19:10:14.366Z,8.40
2018-11-02T19:12:43.596Z,8.40
2018-11-02T19:15:14.752Z,8.30
2018-11-02T19:17:44.116Z,8.30
2018-11-02T19:20:13.808Z,8.30
2018-11-02T19:22:42.655Z,8.30
2018-11-02T19:25:12.698Z,8.20
2018-11-02T19:27:41.659Z,8.10
2018-11-02T19:30:11.673Z,8.10
2018-11-02T19:32:40.215Z,8.10
2018-11-02T19:35:10.005Z,8.10
2018-11-02T19:37:38.547Z,8.00
2018-11-02T19:40:09.806Z,8.00
2018-11-02T19:42:38.482Z,7.90
2018-11-02T19:45:07.986Z,7.90
2018-11-02T19:47:42.853Z,7.90
2018-11-02T19:50:13.443Z,7.80
2018-11-02T19:52:43.087Z,7.70
2018-11-02T19:55:12.683Z,7.70
2018-11-02T19:57:42.508Z,7.70
2018-11-02T20:00:13.208Z,7.70
2018-11-02T20:02:42.665Z,7.60
2018-11-02T20:05:13.704Z,7.60
2018-11-02T20:07:44.909Z,7.60
2018-11-02T20:10:14.333Z,7.50
2018-11-02T20:12:43.532Z,7.40
2018-11-02T20:15:13.865Z,7.40
2018-11-02T20:17:42.686Z,7.40
2018-11-02T20:20:12.918Z,7.40
2018-11-02T20:22:41.745Z,7.40
2018-11-02T20:25:12.569Z,7.40
2018-11-02T20:27:41.143Z,7.40
2018-11-02T20:30:12.954Z,7.40
2018-11-02T20:32:41.906Z,7.40
2018-11-02T20:35:10.581Z,7.50
2018-11-02T20:37:40.690Z,7.60
2018-11-02T20:40:19.519Z,7.50
2018-11-02T20:42:50.885Z,7.50
2018-11-02T20:45:21.386Z,7.40
2018-11-02T20:47:52.925Z,7.40
2018-11-02T20:50:21.540Z,7.40
2018-11-02T20:52:50.638Z,7.30
2018-11-02T20:55:19.657Z,7.30
2018-11-02T20:57:48.375Z,7.30
2018-11-02T21:00:19.789Z,7.40
2018-11-02T21:02:49.103Z,7.40
2018-11-02T21:05:20.319Z,7.50
2018-11-02T21:07:49.469Z,7.50
2018-11-02T21:10:19.105Z,7.50
2018-11-02T21:12:48.090Z,7.50
2018-11-02T21:15:19.142Z,7.50
2018-11-02T21:17:48.185Z,7.50
2018-11-02T21:20:18.297Z,7.50
2018-11-02T21:22:46.843Z,7.60
2018-11-02T21:25:16.047Z,7.60
2018-11-02T21:27:45.325Z,7.60
2018-11-02T21:30:22.856Z,7.60
2018-11-02T21:32:52.053Z,7.60
2018-11-02T21:35:21.442Z,7.70
2018-11-02T21:37:55.592Z,7.70
2018-11-02T21:40:25.277Z,7.60
2018-11-02T21:42:53.905Z,7.60
2018-11-02T21:45:23.466Z,7.70
2018-11-02T21:47:52.344Z,7.60
2018-11-02T21:50:21.105Z,7.70
2018-11-02T21:52:49.908Z,7.70
2018-11-02T21:55:19.085Z,7.70
2018-11-02T21:57:47.652Z,7.60
2018-11-02T22:00:17.761Z,7.60
2018-11-02T22:02:46.723Z,7.60
2018-11-02T22:05:15.390Z,7.70
2018-11-02T22:07:45.136Z,7.70
2018-11-02T22:10:14.610Z,7.70
2018-11-02T22:12:43.158Z,7.80
2018-11-02T22:15:11.781Z,7.80
2018-11-02T22:17:41.026Z,7.80
2018-11-02T22:20:11.558Z,7.80
2018-11-02T22:22:40.595Z,7.80
2018-11-02T22:25:10.454Z,7.80
2018-11-02T22:27:39.090Z,7.80
2018-11-02T22:30:12.181Z,7.80
2018-11-02T22:32:41.112Z,7.80
2018-11-02T22:35:09.894Z,7.80
2018-11-02T22:37:38.589Z,7.80
2018-11-02T22:40:08.937Z,7.70
2018-11-02T22:42:37.594Z,7.70
2018-11-02T22:45:07.077Z,7.70
2018-11-02T22:47:36.357Z,7.70
2018-11-02T22:50:05.486Z,7.60
2018-11-02T22:52:34.085Z,7.70
2018-11-02T22:55:02.811Z,7.70
2018-11-02T22:57:31.398Z,7.70
2018-11-02T23:00:00.081Z,7.70
2018-11-02T23:02:28.659Z,7.80
2018-11-02T23:04:57.885Z,7.80
2018-11-02T23:07:26.507Z,7.80
2018-11-02T23:09:55.185Z,7.80
2018-11-02T23:12:23.840Z,7.90
2018-11-02T23:14:52.510Z,7.80
2018-11-02T23:17:21.159Z,7.80
2018-11-02T23:19:51.893Z,7.80
2018-11-02T23:22:20.681Z,7.90
2018-11-02T23:24:49.415Z,7.90
2018-11-02T23:27:18.202Z,7.80
2018-11-02T23:29:47.192Z,7.90
2018-11-02T23:32:15.727Z,7.90
2018-11-02T23:34:44.366Z,7.90
2018-11-02T23:37:13.226Z,7.90
2018-11-02T23:39:41.825Z,7.90
2018-11-02T23:42:10.455Z,7.90
2018-11-02T23:44:39.163Z,7.90
2018-11-02T23:47:07.754Z,7.90
2018-11-02T23:49:36.483Z,7.90
2018-11-02T23:52:05.156Z,7.90
2018-11-02T23:54:33.750Z,7.90
2018-11-02T23:57:02.645Z,7.90
2018-11-02T23:59:31.345Z,7.90
